createdAt,value
2023-04-10T00:00:36.474Z,4.10
2023-04-10T00:03:04.324Z,5.90
2023-04-10T00:05:31.648Z,2.90
2023-04-10T00:07:58.639Z,5.10
2023-04-10T00:10:26.762Z,2.70
2023-04-10T00:12:54.291Z,3.90
2023-04-10T00:15:21.394Z,4.10
2023-04-10T00:17:50.773Z,3.80
2023-04-10T00:20:17.838Z,6.30
2023-04-10T00:22:44.797Z,5.70
2023-04-10T00:25:11.817Z,4.20
2023-04-10T00:27:38.714Z,3.80
2023-04-10T00:30:06.480Z,3.80
2023-04-10T00:32:33.754Z,6.50
2023-04-10T00:35:01.818Z,3.70
2023-04-10T00:37:28.863Z,4.00
2023-04-10T00:39:56.577Z,5.20
2023-04-10T00:42:23.700Z,4.70
2023-04-10T00:44:53.965Z,4.50
2023-04-10T00:47:22.015Z,2.80
2023-04-10T00:49:49.215Z,3.60
2023-04-10T00:52:16.875Z,3.80
2023-04-10T00:54:44.023Z,3.30
2023-04-10T00:57:11.891Z,4.70
2023-04-10T00:59:39.248Z,3.40
2023-04-10T01:02:06.385Z,2.50
2023-04-10T01:04:34.516Z,2.60
2023-04-10T01:07:10.218Z,3.50
2023-04-10T01:09:59.388Z,2.60
2023-04-10T01:12:38.512Z,2.00
2023-04-10T01:15:13.558Z,3.20
2023-04-10T01:17:50.693Z,2.90
2023-04-10T01:20:26.934Z,3.70
2023-04-10T01:23:32.957Z,2.20
2023-04-10T01:26:25.909Z,2.60
2023-04-10T01:28:53.676Z,3.30
2023-04-10T01:31:46.730Z,3.10
2023-04-10T01:34:22.462Z,4.20
2023-04-10T01:36:53.831Z,3.30
2023-04-10T01:39:22.521Z,2.70
2023-04-10T01:41:53.013Z,3.30
2023-04-10T01:44:30.123Z,3.70
2023-04-10T01:46:59.021Z,3.60
2023-04-10T01:49:28.559Z,2.90
2023-04-10T01:52:02.606Z,5.40
2023-04-10T01:54:32.974Z,3.80
2023-04-10T01:57:02.464Z,2.30
2023-04-10T01:59:31.871Z,2.20
2023-04-10T02:02:00.015Z,2.80
2023-04-10T02:04:28.296Z,3.10
2023-04-10T02:07:11.312Z,2.50
2023-04-10T02:10:03.582Z,1.60
2023-04-10T02:12:39.332Z,3.40
2023-04-10T02:15:08.703Z,4.00
2023-04-10T02:17:37.691Z,2.10
2023-04-10T02:20:06.908Z,2.80
2023-04-10T02:22:34.590Z,2.40
2023-04-10T02:25:05.017Z,2.40
2023-04-10T02:27:34.830Z,3.10
2023-04-10T02:30:06.619Z,3.90
2023-04-10T02:32:35.264Z,2.80
2023-04-10T02:35:03.344Z,2.40
2023-04-10T02:37:31.350Z,2.30
2023-04-10T02:39:59.901Z,2.20
2023-04-10T02:42:27.457Z,2.20
2023-04-10T02:44:56.660Z,2.40
2023-04-10T02:47:24.134Z,2.20
2023-04-10T02:49:52.180Z,3.00
2023-04-10T02:52:19.527Z,2.80
2023-04-10T02:54:47.807Z,2.90
2023-04-10T02:57:14.752Z,1.40
2023-04-10T02:59:41.691Z,2.90
2023-04-10T03:02:08.883Z,2.30
2023-04-10T03:04:37.003Z,3.60
2023-04-10T03:07:04.386Z,2.70
2023-04-10T03:09:32.184Z,3.30
2023-04-10T03:11:59.807Z,2.40
2023-04-10T03:14:27.255Z,2.00
2023-04-10T03:16:55.393Z,1.80
2023-04-10T03:19:22.378Z,1.30
2023-04-10T03:21:49.731Z,1.60
2023-04-10T03:24:16.710Z,3.40
2023-04-10T03:26:43.933Z,2.60
2023-04-10T03:29:10.991Z,4.30
2023-04-10T03:31:38.473Z,1.80
2023-04-10T03:34:06.034Z,2.30
2023-04-10T03:36:33.251Z,2.00
2023-04-10T03:39:00.492Z,2.50
2023-04-10T03:41:27.789Z,1.20
2023-04-10T03:43:55.400Z,3.50
2023-04-10T03:46:23.739Z,2.80
2023-04-10T03:48:53.085Z,2.00
2023-04-10T03:51:20.818Z,2.20
2023-04-10T03:53:48.127Z,1.70
2023-04-10T03:56:16.681Z,2.30
2023-04-10T03:58:43.881Z,2.30
2023-04-10T04:01:11.848Z,2.00
2023-04-10T04:03:53.356Z,3.40
2023-04-10T04:06:39.519Z,1.60
2023-04-10T04:09:29.467Z,2.00
2023-04-10T04:12:15.769Z,2.30
2023-04-10T04:15:03.000Z,1.50
2023-04-10T04:17:39.088Z,2.40
2023-04-10T04:20:09.595Z,2.60
2023-04-10T04:22:55.155Z,2.00
2023-04-10T04:25:56.553Z,3.40
2023-04-10T04:28:58.714Z,2.40
2023-04-10T04:32:01.161Z,1.90
2023-04-10T04:34:47.262Z,3.00
2023-04-10T04:37:24.335Z,1.40
2023-04-10T04:40:10.543Z,2.00
2023-04-10T04:43:00.128Z,4.80
2023-04-10T04:45:45.302Z,2.30
2023-04-10T04:48:28.201Z,2.60
2023-04-10T04:51:12.554Z,4.40
2023-04-10T04:53:48.726Z,1.50
2023-04-10T04:56:44.332Z,1.70
2023-04-10T04:59:34.372Z,2.90
2023-04-10T05:02:13.835Z,2.10
2023-04-10T05:05:04.760Z,1.10
2023-04-10T05:07:48.951Z,1.90
2023-04-10T05:10:34.181Z,1.80
2023-04-10T05:13:27.582Z,1.40
2023-04-10T05:16:14.817Z,3.80
2023-04-10T05:18:57.114Z,3.90
2023-04-10T05:21:47.582Z,5.00
2023-04-10T05:24:24.144Z,1.50
2023-04-10T05:27:14.223Z,3.40
2023-04-10T05:29:53.141Z,4.40
2023-04-10T05:32:42.693Z,3.70
2023-04-10T05:35:28.305Z,2.10
2023-04-10T05:38:02.766Z,2.90
2023-04-10T05:40:46.054Z,3.00
2023-04-10T05:43:32.585Z,1.80
2023-04-10T05:46:25.632Z,2.80
2023-04-10T05:49:06.681Z,2.60
2023-04-10T05:51:39.563Z,3.20
2023-04-10T05:54:22.938Z,2.10
2023-04-10T05:57:09.206Z,1.70
2023-04-10T06:00:12.109Z,1.40
2023-04-10T06:02:41.793Z,1.80
2023-04-10T06:05:13.616Z,2.30
2023-04-10T06:07:41.102Z,3.50
2023-04-10T06:10:10.622Z,2.70
2023-04-10T06:12:38.396Z,3.30
2023-04-10T06:15:08.517Z,3.40
2023-04-10T06:17:41.479Z,2.60
2023-04-10T06:20:12.923Z,4.00
2023-04-10T06:22:39.926Z,2.90
2023-04-10T06:25:08.904Z,5.30
2023-04-10T06:27:36.960Z,3.00
2023-04-10T06:30:06.055Z,4.00
2023-04-10T06:32:33.550Z,3.90
2023-04-10T06:35:04.948Z,4.20
2023-04-10T06:37:33.056Z,5.10
2023-04-10T06:40:14.346Z,2.50
2023-04-10T06:42:41.942Z,1.20
2023-04-10T06:45:15.684Z,2.80
2023-04-10T06:47:43.163Z,2.40
2023-04-10T06:50:10.608Z,2.50
2023-04-10T06:52:38.774Z,3.20
2023-04-10T06:55:09.094Z,4.50
2023-04-10T06:57:36.066Z,3.40
2023-04-10T07:00:03.165Z,3.10
2023-04-10T07:02:30.424Z,3.00
2023-04-10T07:04:58.952Z,2.70
2023-04-10T07:07:26.901Z,1.20
2023-04-10T07:09:54.043Z,2.30
2023-04-10T07:12:21.188Z,2.00
2023-04-10T07:14:49.150Z,1.80
2023-04-10T07:17:17.535Z,2.00
2023-04-10T07:19:44.378Z,2.30
2023-04-10T07:22:11.835Z,3.40
2023-04-10T07:24:38.873Z,2.10
2023-04-10T07:27:05.990Z,4.70
2023-04-10T07:29:35.437Z,3.00
2023-04-10T07:32:02.538Z,1.60
2023-04-10T07:34:31.446Z,2.30
2023-04-10T07:36:58.401Z,1.20
2023-04-10T07:39:25.475Z,1.30
2023-04-10T07:41:55.798Z,3.00
2023-04-10T07:44:22.935Z,1.40
2023-04-10T07:46:52.066Z,1.20
2023-04-10T07:49:19.188Z,1.80
2023-04-10T07:51:47.368Z,2.30
2023-04-10T07:54:14.608Z,1.10
2023-04-10T07:56:41.504Z,3.40
2023-04-10T07:59:13.041Z,1.70
2023-04-10T08:01:43.600Z,1.90
2023-04-10T08:04:11.411Z,2.50
2023-04-10T08:06:38.557Z,3.10
2023-04-10T08:09:05.509Z,2.20
2023-04-10T08:11:37.339Z,2.90
2023-04-10T08:14:06.618Z,2.10
2023-04-10T08:16:36.541Z,1.40
2023-04-10T08:19:04.352Z,3.50
2023-04-10T08:21:33.120Z,1.60
2023-04-10T08:24:02.756Z,1.30
2023-04-10T08:26:29.722Z,2.60
2023-04-10T08:29:00.122Z,1.00
2023-04-10T08:31:29.068Z,1.60
2023-04-10T08:33:58.990Z,2.70
2023-04-10T08:36:29.453Z,1.10
2023-04-10T08:38:56.434Z,2.60
2023-04-10T08:41:28.242Z,2.50
2023-04-10T08:43:57.568Z,1.90
2023-04-10T08:46:27.635Z,1.60
2023-04-10T08:49:06.065Z,4.00
2023-04-10T08:51:41.968Z,19.40
2023-04-10T08:54:19.823Z,22.80
2023-04-10T08:57:01.656Z,19.30
2023-04-10T08:59:31.167Z,22.30
2023-04-10T09:01:59.714Z,26.20
2023-04-10T09:04:29.444Z,22.30
2023-04-10T09:06:57.034Z,18.80
2023-04-10T09:09:24.230Z,20.20
2023-04-10T09:12:00.839Z,20.50
2023-04-10T09:14:33.316Z,18.50
2023-04-10T09:17:20.659Z,20.00
2023-04-10T09:19:53.398Z,19.50
2023-04-10T09:22:34.337Z,17.00
2023-04-10T09:25:02.800Z,16.90
2023-04-10T09:27:40.858Z,19.40
2023-04-10T09:30:08.807Z,16.40
2023-04-10T09:32:43.501Z,17.50
2023-04-10T09:35:14.278Z,15.00
2023-04-10T09:37:42.741Z,15.90
2023-04-10T09:40:24.962Z,19.00
2023-04-10T09:42:53.128Z,14.50
2023-04-10T09:45:20.952Z,15.70
2023-04-10T09:48:25.619Z,15.60
2023-04-10T09:50:52.765Z,13.60
2023-04-10T09:53:22.478Z,16.00
2023-04-10T09:55:51.061Z,16.40
2023-04-10T09:58:19.331Z,12.80
2023-04-10T10:00:48.639Z,12.80
2023-04-10T10:03:25.944Z,14.00
2023-04-10T10:05:53.129Z,13.80
2023-04-10T10:08:20.951Z,17.00
2023-04-10T10:10:51.980Z,12.90
2023-04-10T10:13:36.223Z,11.70
2023-04-10T10:16:17.045Z,12.70
2023-04-10T10:19:02.388Z,12.40
2023-04-10T10:21:30.862Z,12.70
2023-04-10T10:24:03.032Z,12.80
2023-04-10T10:26:32.345Z,10.80
2023-04-10T10:29:03.988Z,10.40
2023-04-10T10:31:34.368Z,8.20
2023-04-10T10:34:09.884Z,6.60
2023-04-10T10:36:38.453Z,9.70
2023-04-10T10:39:17.496Z,9.30
2023-04-10T10:41:54.753Z,9.90
2023-04-10T10:44:37.686Z,10.20
2023-04-10T10:47:33.526Z,10.30
2023-04-10T10:50:03.220Z,9.60
2023-04-10T10:52:44.289Z,9.70
2023-04-10T10:55:24.116Z,8.70
2023-04-10T10:58:02.452Z,9.20
2023-04-10T11:00:51.671Z,8.30
2023-04-10T11:03:18.834Z,6.70
2023-04-10T11:05:59.581Z,9.90
2023-04-10T11:08:47.059Z,7.60
2023-04-10T11:11:23.816Z,8.10
2023-04-10T11:13:55.084Z,8.20
2023-04-10T11:16:45.649Z,9.20
2023-04-10T11:19:15.907Z,9.10
2023-04-10T11:22:05.906Z,7.20
2023-04-10T11:24:59.778Z,8.00
2023-04-10T11:27:51.077Z,11.70
2023-04-10T11:30:34.814Z,10.00
2023-04-10T11:33:06.209Z,6.60
2023-04-10T11:35:34.470Z,7.70
2023-04-10T11:38:16.209Z,6.10
2023-04-10T11:40:58.028Z,4.60
2023-04-10T11:43:25.267Z,9.30
2023-04-10T11:46:19.381Z,6.70
2023-04-10T11:48:48.357Z,7.00
2023-04-10T11:51:15.955Z,7.50
2023-04-10T11:53:43.665Z,6.00
2023-04-10T11:56:23.663Z,6.80
2023-04-10T11:58:54.692Z,7.20
2023-04-10T12:01:24.997Z,7.10
2023-04-10T12:03:52.254Z,5.40
2023-04-10T12:06:20.371Z,7.90
2023-04-10T12:08:51.674Z,6.20
2023-04-10T12:11:25.562Z,6.50
2023-04-10T12:13:54.766Z,6.50
2023-04-10T12:16:23.197Z,7.50
2023-04-10T12:18:50.839Z,7.00
2023-04-10T12:21:18.248Z,6.60
2023-04-10T12:23:45.313Z,6.60
2023-04-10T12:26:16.470Z,5.50
2023-04-10T12:28:56.704Z,5.50
2023-04-10T12:31:33.374Z,3.80
2023-04-10T12:34:09.956Z,4.70
2023-04-10T12:36:41.299Z,6.00
2023-04-10T12:39:23.709Z,5.50
2023-04-10T12:41:54.792Z,5.50
2023-04-10T12:44:23.452Z,8.60
2023-04-10T12:46:51.813Z,8.10
2023-04-10T12:49:20.305Z,8.60
2023-04-10T12:51:54.130Z,6.00
2023-04-10T12:54:36.509Z,5.70
2023-04-10T12:57:08.581Z,8.10
2023-04-10T12:59:37.163Z,5.10
2023-04-10T13:02:04.817Z,6.50
2023-04-10T13:04:32.864Z,6.40
2023-04-10T13:07:01.470Z,7.50
2023-04-10T13:09:29.178Z,8.50
2023-04-10T13:12:00.118Z,10.20
2023-04-10T13:14:27.455Z,6.30
2023-04-10T13:16:55.504Z,6.50
2023-04-10T13:19:22.568Z,6.30
2023-04-10T13:21:51.693Z,7.90
2023-04-10T13:24:19.662Z,7.90
2023-04-10T13:26:47.217Z,7.40
2023-04-10T13:29:14.508Z,7.10
2023-04-10T13:31:41.501Z,6.50
2023-04-10T13:34:08.727Z,6.50
2023-04-10T13:36:35.759Z,6.00
2023-04-10T13:39:03.054Z,5.70
2023-04-10T13:41:30.069Z,5.10
2023-04-10T13:43:57.238Z,7.50
2023-04-10T13:46:26.634Z,5.30
2023-04-10T13:48:53.669Z,5.80
2023-04-10T13:51:20.617Z,8.10
2023-04-10T13:53:47.656Z,7.30
2023-04-10T13:56:14.703Z,7.90
2023-04-10T13:58:41.640Z,7.10
2023-04-10T14:01:10.565Z,5.20
2023-04-10T14:03:37.779Z,4.50
2023-04-10T14:06:05.258Z,6.30
2023-04-10T14:08:32.309Z,5.80
2023-04-10T14:11:01.137Z,6.80
2023-04-10T14:13:32.236Z,6.20
2023-04-10T14:16:01.636Z,6.60
2023-04-10T14:18:33.592Z,8.20
2023-04-10T14:21:01.299Z,9.30
2023-04-10T14:23:29.018Z,6.00
2023-04-10T14:25:57.904Z,5.40
2023-04-10T14:28:25.175Z,5.60
2023-04-10T14:30:53.154Z,7.30
2023-04-10T14:33:21.679Z,6.80
2023-04-10T14:35:49.235Z,9.70
2023-04-10T14:38:17.631Z,6.30
2023-04-10T14:40:49.301Z,8.20
2023-04-10T14:43:18.220Z,8.80
2023-04-10T14:45:45.863Z,7.10
2023-04-10T14:48:13.646Z,5.60
2023-04-10T14:50:50.009Z,7.20
2023-04-10T14:53:17.650Z,5.70
2023-04-10T14:55:44.741Z,7.70
2023-04-10T14:58:12.165Z,8.30
2023-04-10T15:00:39.324Z,7.00
2023-04-10T15:03:06.749Z,5.40
2023-04-10T15:05:43.239Z,7.50
2023-04-10T15:08:11.103Z,4.40
2023-04-10T15:10:43.366Z,5.60
2023-04-10T15:13:11.040Z,11.30
2023-04-10T15:15:38.905Z,10.20
2023-04-10T15:18:05.976Z,6.70
2023-04-10T15:20:35.897Z,7.10
2023-04-10T15:23:03.059Z,7.50
2023-04-10T15:25:33.358Z,6.40
2023-04-10T15:28:02.114Z,9.80
2023-04-10T15:30:30.718Z,9.60
2023-04-10T15:32:58.320Z,6.50
2023-04-10T15:35:26.854Z,9.00
2023-04-10T15:37:54.403Z,7.70
2023-04-10T15:40:21.481Z,7.40
2023-04-10T15:42:48.610Z,6.60
2023-04-10T15:45:15.588Z,8.50
2023-04-10T15:47:42.543Z,7.90
2023-04-10T15:50:10.964Z,5.50
2023-04-10T15:52:38.126Z,5.40
2023-04-10T15:55:06.154Z,8.00
2023-04-10T15:57:33.105Z,7.10
2023-04-10T16:00:02.340Z,8.20
2023-04-10T16:02:32.487Z,8.30
2023-04-10T16:05:00.610Z,9.40
2023-04-10T16:07:31.706Z,11.30
2023-04-10T16:09:59.540Z,7.90
2023-04-10T16:12:27.533Z,9.80
2023-04-10T16:14:54.957Z,9.00
2023-04-10T16:17:22.165Z,7.70
2023-04-10T16:19:49.773Z,9.80
2023-04-10T16:22:22.955Z,7.10
2023-04-10T16:24:59.755Z,7.60
2023-04-10T16:27:27.714Z,6.10
2023-04-10T16:29:55.059Z,7.20
2023-04-10T16:32:22.012Z,7.20
2023-04-10T16:34:49.663Z,7.40
2023-04-10T16:37:18.862Z,5.90
2023-04-10T16:39:46.949Z,8.00
2023-04-10T16:42:14.401Z,5.30
2023-04-10T16:44:42.367Z,4.60
2023-04-10T16:47:10.589Z,9.90
2023-04-10T16:49:46.006Z,6.90
2023-04-10T16:52:13.236Z,4.40
2023-04-10T16:54:41.513Z,7.80
2023-04-10T16:57:08.624Z,6.50
2023-04-10T16:59:36.045Z,6.90
2023-04-10T17:02:03.197Z,7.80
2023-04-10T17:04:31.960Z,6.50
2023-04-10T17:06:58.997Z,5.40
2023-04-10T17:09:25.921Z,5.40
2023-04-10T17:11:53.727Z,5.00
2023-04-10T17:14:21.180Z,4.60
2023-04-10T17:16:48.147Z,3.30
2023-04-10T17:19:15.996Z,4.10
2023-04-10T17:21:43.748Z,5.50
2023-04-10T17:24:15.044Z,5.60
2023-04-10T17:26:44.796Z,5.60
2023-04-10T17:29:13.607Z,4.40
2023-04-10T17:31:43.155Z,7.00
2023-04-10T17:34:11.677Z,4.70
2023-04-10T17:36:43.159Z,5.60
2023-04-10T17:39:10.644Z,5.80
2023-04-10T17:41:37.831Z,3.90
2023-04-10T17:44:06.553Z,3.60
2023-04-10T17:46:36.976Z,6.10
2023-04-10T17:49:06.421Z,5.50
2023-04-10T17:51:35.246Z,4.70
2023-04-10T17:54:02.290Z,5.20
2023-04-10T17:56:29.653Z,5.10
2023-04-10T17:58:57.952Z,4.70
2023-04-10T18:01:32.193Z,4.00
2023-04-10T18:04:00.323Z,4.90
2023-04-10T18:06:29.775Z,7.40
2023-04-10T18:08:57.816Z,5.10
2023-04-10T18:11:25.566Z,6.00
2023-04-10T18:13:52.490Z,6.10
2023-04-10T18:16:22.766Z,3.40
2023-04-10T18:18:52.848Z,5.00
2023-04-10T18:21:23.994Z,5.10
2023-04-10T18:23:51.638Z,6.40
2023-04-10T18:26:21.982Z,4.30
2023-04-10T18:28:49.433Z,5.40
2023-04-10T18:31:18.500Z,5.60
2023-04-10T18:33:53.354Z,3.90
2023-04-10T18:36:32.065Z,6.00
2023-04-10T18:38:59.054Z,4.40
2023-04-10T18:41:25.955Z,4.00
2023-04-10T18:44:01.826Z,4.90
2023-04-10T18:46:33.031Z,5.50
2023-04-10T18:49:03.600Z,7.10
2023-04-10T18:51:35.003Z,5.40
2023-04-10T18:54:06.193Z,5.20
2023-04-10T18:56:38.178Z,5.70
2023-04-10T18:59:05.299Z,7.30
2023-04-10T19:01:32.313Z,4.50
2023-04-10T19:04:01.905Z,4.70
2023-04-10T19:06:29.524Z,4.80
2023-04-10T19:08:58.191Z,5.90
2023-04-10T19:11:25.719Z,4.70
2023-04-10T19:13:54.729Z,7.30
2023-04-10T19:16:22.173Z,6.40
2023-04-10T19:18:49.962Z,4.60
2023-04-10T19:21:16.907Z,6.80
2023-04-10T19:23:43.937Z,5.40
2023-04-10T19:26:11.508Z,3.30
2023-04-10T19:28:38.569Z,4.00
2023-04-10T19:31:05.986Z,4.30
2023-04-10T19:33:33.237Z,6.20
2023-04-10T19:36:00.459Z,4.90
2023-04-10T19:38:33.002Z,4.10
2023-04-10T19:41:02.790Z,4.90
2023-04-10T19:43:32.718Z,5.30
2023-04-10T19:46:02.217Z,6.50
2023-04-10T19:48:29.376Z,5.70
2023-04-10T19:51:05.332Z,4.00
2023-04-10T19:53:32.377Z,6.10
2023-04-10T19:55:59.318Z,3.60
2023-04-10T20:01:07.798Z,7.60
2023-04-10T20:03:36.176Z,6.00
2023-04-10T20:06:04.823Z,4.70
2023-04-10T20:08:31.882Z,3.40
2023-04-10T20:10:59.118Z,5.80
2023-04-10T20:13:26.398Z,5.80
2023-04-10T20:15:53.615Z,4.20
2023-04-10T20:18:21.701Z,3.60
2023-04-10T20:20:48.725Z,6.80
2023-04-10T20:23:15.703Z,3.60
2023-04-10T20:25:42.737Z,4.20
2023-04-10T20:28:10.101Z,4.60
2023-04-10T20:30:38.203Z,3.50
2023-04-10T20:33:05.853Z,3.60
2023-04-10T20:35:34.195Z,3.60
2023-04-10T20:38:02.759Z,5.80
2023-04-10T20:40:29.721Z,6.00
2023-04-10T20:42:57.158Z,5.30
2023-04-10T20:45:29.922Z,4.30
2023-04-10T20:47:58.006Z,4.60
2023-04-10T20:50:27.442Z,5.40
2023-04-10T20:52:55.289Z,3.40
2023-04-10T20:55:22.349Z,4.40
2023-04-10T20:57:51.444Z,5.80
2023-04-10T21:00:19.424Z,5.20
2023-04-10T21:02:49.356Z,5.90
2023-04-10T21:05:16.541Z,4.80
2023-04-10T21:07:46.086Z,5.80
2023-04-10T21:10:13.169Z,5.80
2023-04-10T21:12:40.205Z,5.00
2023-04-10T21:15:18.626Z,3.70
2023-04-10T21:17:47.323Z,5.00
2023-04-10T21:20:14.455Z,3.90
2023-04-10T21:22:44.644Z,4.60
2023-04-10T21:25:12.902Z,6.60
2023-04-10T21:27:40.080Z,5.20
2023-04-10T21:30:08.072Z,3.10
2023-04-10T21:32:37.654Z,4.80
2023-04-10T21:35:23.863Z,3.50
2023-04-10T21:38:01.378Z,6.10
2023-04-10T21:40:38.629Z,5.10
2023-04-10T21:43:06.577Z,5.00
2023-04-10T21:45:37.842Z,4.50
2023-04-10T21:48:11.565Z,4.70
2023-04-10T21:50:38.699Z,4.10
2023-04-10T21:53:05.951Z,4.30
2023-04-10T21:55:35.155Z,3.50
2023-04-10T21:58:02.920Z,4.40
2023-04-10T22:00:30.311Z,5.60
2023-04-10T22:02:58.361Z,3.20
2023-04-10T22:05:26.605Z,3.40
2023-04-10T22:07:54.893Z,5.90
2023-04-10T22:10:23.070Z,3.60
2023-04-10T22:12:52.363Z,6.80
2023-04-10T22:15:19.958Z,4.10
2023-04-10T22:17:47.100Z,3.70
2023-04-10T22:20:15.144Z,4.50
2023-04-10T22:22:42.119Z,3.00
2023-04-10T22:25:09.556Z,3.80
2023-04-10T22:27:37.278Z,3.40
2023-04-10T22:30:04.967Z,6.00
2023-04-10T22:32:34.102Z,3.40
2023-04-10T22:35:02.020Z,6.10
2023-04-10T22:37:29.099Z,3.40
2023-04-10T22:39:57.470Z,2.90
2023-04-10T22:42:24.494Z,3.40
2023-04-10T22:44:52.181Z,3.80
2023-04-10T22:47:19.230Z,3.80
2023-04-10T22:49:46.371Z,3.80
2023-04-10T22:52:13.723Z,3.10
2023-04-10T22:54:41.082Z,7.10
2023-04-10T22:57:08.027Z,2.70
2023-04-10T22:59:38.239Z,5.80
2023-04-10T23:02:05.355Z,3.60
2023-04-10T23:04:32.554Z,3.50
2023-04-10T23:06:59.693Z,4.10
2023-04-10T23:09:26.753Z,5.10
2023-04-10T23:11:53.905Z,3.90
2023-04-10T23:14:21.038Z,3.00
2023-04-10T23:16:48.091Z,3.70
2023-04-10T23:19:15.715Z,3.60
2023-04-10T23:21:42.711Z,7.20
2023-04-10T23:24:09.958Z,4.80
2023-04-10T23:26:37.002Z,3.70
2023-04-10T23:29:04.113Z,3.40
2023-04-10T23:31:31.166Z,4.10
2023-04-10T23:33:58.244Z,4.90
2023-04-10T23:36:25.800Z,3.50
2023-04-10T23:38:53.284Z,4.70
2023-04-10T23:41:21.745Z,6.10
2023-04-10T23:43:48.718Z,3.20
2023-04-10T23:46:15.644Z,4.50
2023-04-10T23:48:42.529Z,5.00
2023-04-10T23:51:09.613Z,3.20
2023-04-10T23:53:36.672Z,4.10
2023-04-10T23:56:03.818Z,4.10
2023-04-10T23:58:30.768Z,2.00
